createdAt,value
2023-01-09T00:01:32.157Z,47.92
2023-01-09T00:04:04.632Z,53.40
2023-01-09T00:06:31.973Z,51.50
2023-01-09T00:08:58.666Z,55.70
2023-01-09T00:11:25.713Z,55.70
2023-01-09T00:13:53.911Z,50.67
2023-01-09T00:16:23.967Z,50.13
2023-01-09T00:18:54.133Z,51.72
2023-01-09T00:21:21.298Z,53.08
2023-01-09T00:23:48.011Z,50.63
2023-01-09T00:26:18.711Z,51.80
2023-01-09T00:28:46.680Z,52.42
2023-01-09T00:31:14.242Z,50.58
2023-01-09T00:33:55.618Z,51.85
2023-01-09T00:36:25.703Z,53.85
2023-01-09T00:38:58.762Z,55.58
2023-01-09T00:41:38.484Z,54.20
2023-01-09T00:44:12.272Z,58.95
2023-01-09T00:46:45.479Z,58.88
2023-01-09T00:49:29.561Z,59.20
2023-01-09T00:51:58.773Z,60.28
2023-01-09T00:54:28.316Z,60.65
2023-01-09T00:56:56.499Z,60.08
2023-01-09T00:59:23.708Z,58.90
2023-01-09T01:01:51.394Z,60.40
2023-01-09T01:04:37.838Z,57.00
2023-01-09T01:07:29.799Z,55.33
2023-01-09T01:09:59.272Z,56.20
2023-01-09T01:12:28.786Z,56.60
2023-01-09T01:14:55.701Z,56.13
2023-01-09T01:17:23.224Z,56.83
2023-01-09T01:19:56.161Z,54.35
2023-01-09T01:22:25.748Z,55.47
2023-01-09T01:24:52.441Z,58.97
2023-01-09T01:27:19.427Z,53.30
2023-01-09T01:29:46.596Z,56.53
2023-01-09T01:32:15.011Z,53.42
2023-01-09T01:34:47.485Z,55.08
2023-01-09T01:37:15.351Z,54.13
2023-01-09T01:39:48.860Z,52.95
2023-01-09T01:42:18.275Z,51.63
2023-01-09T01:45:18.246Z,49.60
2023-01-09T01:48:00.117Z,47.70
2023-01-09T01:50:47.403Z,47.40
2023-01-09T01:53:16.509Z,50.67
2023-01-09T01:56:15.884Z,52.92
2023-01-09T01:58:50.502Z,47.83
2023-01-09T02:01:27.679Z,49.08
2023-01-09T02:03:57.609Z,49.40
2023-01-09T02:06:24.806Z,48.75
2023-01-09T02:08:51.833Z,44.90
2023-01-09T02:11:20.366Z,46.08
2023-01-09T02:13:47.978Z,45.97
2023-01-09T02:16:19.343Z,44.03
2023-01-09T02:18:54.806Z,42.80
2023-01-09T02:22:00.956Z,44.25
2023-01-09T02:25:03.594Z,44.38
2023-01-09T02:30:40.508Z,39.78
2023-01-09T02:33:28.314Z,42.72
2023-01-09T02:36:07.808Z,40.05
2023-01-09T02:38:56.650Z,38.25
2023-01-09T02:41:29.208Z,36.78
2023-01-09T02:44:30.366Z,38.42
2023-01-09T02:47:07.235Z,36.28
2023-01-09T02:49:41.616Z,35.47
2023-01-09T02:52:45.429Z,34.63
2023-01-09T02:55:29.537Z,32.22
2023-01-09T02:58:30.624Z,33.97
2023-01-09T03:00:58.704Z,34.65
2023-01-09T03:03:52.539Z,32.88
2023-01-09T03:06:43.561Z,32.25
2023-01-09T03:09:22.928Z,35.50
2023-01-09T03:12:23.092Z,37.72
2023-01-09T03:14:56.102Z,38.28
2023-01-09T03:17:50.829Z,39.92
2023-01-09T03:20:22.667Z,39.75
2023-01-09T03:23:07.367Z,37.78
2023-01-09T03:25:34.644Z,37.55
2023-01-09T03:28:05.795Z,41.10
2023-01-09T03:30:36.788Z,39.93
2023-01-09T03:33:06.306Z,39.88
2023-01-09T03:35:33.466Z,38.05
2023-01-09T03:38:15.345Z,38.50
2023-01-09T03:40:44.974Z,34.20
2023-01-09T03:43:11.786Z,35.85
2023-01-09T03:45:38.599Z,33.60
2023-01-09T03:48:05.568Z,31.55
2023-01-09T03:50:35.781Z,30.20
2023-01-09T03:53:14.187Z,28.00
2023-01-09T03:55:45.909Z,27.65
2023-01-09T03:58:23.059Z,25.85
2023-01-09T04:00:51.286Z,25.00
2023-01-09T04:03:24.759Z,24.02
2023-01-09T04:05:51.487Z,23.02
2023-01-09T04:08:24.266Z,23.52
2023-01-09T04:10:52.494Z,22.70
2023-01-09T04:13:22.155Z,23.25
2023-01-09T04:15:49.193Z,22.60
2023-01-09T04:18:16.577Z,22.98
2023-01-09T04:20:46.561Z,22.02
2023-01-09T04:23:13.120Z,22.45
2023-01-09T04:25:42.946Z,22.65
2023-01-09T04:28:21.789Z,22.67
2023-01-09T04:30:48.543Z,21.65
2023-01-09T04:33:15.342Z,23.17
2023-01-09T04:35:42.581Z,23.15
2023-01-09T04:38:09.469Z,23.85
2023-01-09T04:40:36.222Z,23.77
2023-01-09T04:43:02.913Z,23.38
2023-01-09T04:45:29.583Z,23.13
2023-01-09T04:47:57.049Z,23.50
2023-01-09T04:50:23.790Z,25.52
2023-01-09T04:52:57.564Z,24.50
2023-01-09T04:55:24.401Z,27.08
2023-01-09T04:57:53.644Z,25.75
2023-01-09T05:00:20.588Z,25.48
2023-01-09T05:02:47.222Z,25.20
2023-01-09T05:05:16.201Z,24.98
2023-01-09T05:07:42.845Z,24.50
2023-01-09T05:10:11.116Z,24.15
2023-01-09T05:12:37.916Z,23.80
2023-01-09T05:15:07.392Z,25.30
2023-01-09T05:17:34.337Z,24.13
2023-01-09T05:20:01.191Z,25.35
2023-01-09T05:22:31.918Z,25.33
2023-01-09T05:25:00.336Z,22.88
2023-01-09T05:27:27.533Z,24.67
2023-01-09T05:29:56.296Z,22.75
2023-01-09T05:32:23.351Z,22.85
2023-01-09T05:34:50.029Z,23.45
2023-01-09T05:37:16.588Z,21.88
2023-01-09T05:39:43.169Z,20.10
2023-01-09T05:42:09.817Z,21.73
2023-01-09T05:44:38.080Z,20.08
2023-01-09T05:47:07.735Z,20.08
2023-01-09T05:49:34.393Z,19.52
2023-01-09T05:52:10.064Z,19.27
2023-01-09T05:54:36.902Z,19.08
2023-01-09T05:57:03.607Z,19.15
2023-01-09T05:59:32.704Z,19.23
2023-01-09T06:01:59.370Z,19.48
2023-01-09T06:04:29.961Z,18.88
2023-01-09T06:06:58.882Z,19.58
2023-01-09T06:09:25.668Z,20.88
2023-01-09T06:11:54.448Z,19.90
2023-01-09T06:14:22.000Z,19.33
2023-01-09T06:16:48.649Z,19.67
2023-01-09T06:19:15.594Z,20.73
2023-01-09T06:21:42.316Z,19.83
2023-01-09T06:24:09.111Z,20.20
2023-01-09T06:26:35.703Z,20.80
2023-01-09T06:29:02.375Z,21.70
2023-01-09T06:31:29.046Z,20.35
2023-01-09T06:33:55.769Z,20.42
2023-01-09T06:36:22.872Z,20.15
2023-01-09T06:38:49.443Z,21.65
2023-01-09T06:41:16.200Z,21.38
2023-01-09T06:43:42.932Z,20.50
2023-01-09T06:46:12.187Z,20.88
2023-01-09T06:48:41.920Z,21.70
2023-01-09T06:51:08.598Z,21.48
2023-01-09T06:53:39.178Z,22.23
2023-01-09T06:56:06.419Z,22.45
2023-01-09T06:58:33.186Z,21.10
2023-01-09T07:01:00.496Z,21.80
2023-01-09T07:03:31.945Z,22.83
2023-01-09T07:06:08.812Z,22.45
2023-01-09T07:08:37.139Z,21.38
2023-01-09T07:11:04.105Z,21.42
2023-01-09T07:13:31.114Z,22.30
2023-01-09T07:15:58.243Z,21.23
2023-01-09T07:18:25.427Z,21.85
2023-01-09T07:20:56.078Z,21.08
2023-01-09T07:23:22.759Z,21.20
2023-01-09T07:25:51.733Z,19.67
2023-01-09T07:28:19.916Z,20.48
2023-01-09T07:30:47.631Z,19.30
2023-01-09T07:33:17.400Z,19.95
2023-01-09T07:35:44.378Z,20.08
2023-01-09T07:38:14.315Z,19.98
2023-01-09T07:40:44.051Z,19.95
2023-01-09T07:43:16.813Z,20.02
2023-01-09T07:45:43.666Z,18.40
2023-01-09T07:48:12.873Z,18.23
2023-01-09T07:50:42.391Z,20.20
2023-01-09T07:53:12.145Z,21.15
2023-01-09T07:55:38.821Z,19.40
2023-01-09T07:58:05.522Z,22.88
2023-01-09T08:00:33.261Z,18.65
2023-01-09T08:03:00.525Z,20.40
2023-01-09T08:05:30.452Z,19.55
2023-01-09T08:07:57.215Z,18.45
2023-01-09T08:10:26.306Z,20.95
2023-01-09T08:12:52.987Z,20.67
2023-01-09T08:15:20.066Z,19.83
2023-01-09T08:17:47.151Z,20.05
2023-01-09T08:20:17.656Z,21.27
2023-01-09T08:22:50.678Z,21.27
2023-01-09T08:25:18.347Z,21.90
2023-01-09T08:27:45.635Z,17.67
2023-01-09T08:30:14.788Z,20.35
2023-01-09T08:32:42.133Z,17.75
2023-01-09T08:35:11.832Z,21.05
2023-01-09T08:37:38.516Z,16.27
2023-01-09T08:40:05.630Z,17.17
2023-01-09T08:42:50.891Z,16.08
2023-01-09T08:45:36.258Z,15.77
2023-01-09T08:48:03.238Z,15.55
2023-01-09T08:50:30.007Z,16.92
2023-01-09T08:52:57.053Z,16.85
2023-01-09T08:55:24.276Z,17.52
2023-01-09T08:58:00.112Z,16.75
2023-01-09T09:00:27.052Z,17.80
2023-01-09T09:03:01.263Z,18.30
2023-01-09T09:05:34.467Z,18.58
2023-01-09T09:08:02.767Z,16.52
2023-01-09T09:10:30.353Z,15.75
2023-01-09T09:12:58.917Z,15.10
2023-01-09T09:15:27.239Z,17.02
2023-01-09T09:17:56.490Z,17.60
2023-01-09T09:20:25.386Z,15.35
2023-01-09T09:22:52.334Z,14.98
2023-01-09T09:25:19.995Z,13.93
2023-01-09T09:27:47.164Z,14.15
2023-01-09T09:30:23.967Z,14.50
2023-01-09T09:32:57.033Z,12.80
2023-01-09T09:35:28.808Z,13.05
2023-01-09T09:38:05.582Z,12.02
2023-01-09T09:40:58.877Z,12.77
2023-01-09T09:44:09.319Z,13.23
2023-01-09T09:47:02.022Z,12.70
2023-01-09T09:49:40.344Z,12.98
2023-01-09T09:52:34.892Z,12.90
2023-01-09T09:55:15.249Z,12.65
2023-01-09T09:57:45.196Z,13.77
2023-01-09T10:00:19.299Z,13.60
2023-01-09T10:03:16.490Z,12.68
2023-01-09T10:05:48.527Z,13.07
2023-01-09T10:08:36.788Z,13.02
2023-01-09T10:11:05.303Z,13.95
2023-01-09T10:13:53.368Z,14.20
2023-01-09T10:16:46.342Z,12.95
2023-01-09T10:19:28.537Z,15.25
2023-01-09T10:22:25.070Z,16.00
2023-01-09T10:25:05.620Z,17.27
2023-01-09T10:27:41.407Z,16.33
2023-01-09T10:30:29.776Z,17.75
2023-01-09T10:33:15.049Z,17.75
2023-01-09T10:35:53.727Z,18.20
2023-01-09T10:38:27.329Z,20.50
2023-01-09T10:41:06.916Z,20.77
2023-01-09T10:44:14.667Z,24.75
2023-01-09T10:46:57.094Z,23.17
2023-01-09T10:49:24.787Z,24.55
2023-01-09T10:51:56.978Z,24.83
2023-01-09T10:54:24.950Z,24.25
2023-01-09T10:56:56.743Z,23.42
2023-01-09T11:01:59.922Z,24.55
2023-01-09T11:04:31.042Z,23.63
2023-01-09T11:07:07.464Z,20.88
2023-01-09T11:09:59.999Z,24.90
2023-01-09T11:12:29.488Z,23.67
2023-01-09T11:14:56.476Z,23.88
2023-01-09T11:17:29.432Z,24.10
2023-01-09T11:20:17.321Z,24.92
2023-01-09T11:22:49.780Z,22.95
2023-01-09T11:25:19.845Z,24.73
2023-01-09T11:28:16.174Z,23.45
2023-01-09T11:30:57.460Z,25.13
2023-01-09T11:33:27.881Z,24.27
2023-01-09T11:35:59.935Z,22.35
2023-01-09T11:41:04.330Z,19.13
2023-01-09T11:43:38.261Z,19.58
2023-01-09T11:46:08.334Z,20.55
2023-01-09T11:48:57.324Z,19.77
2023-01-09T11:51:26.841Z,20.30
2023-01-09T11:54:22.905Z,19.90
2023-01-09T11:56:50.638Z,18.05
2023-01-09T11:59:20.085Z,20.77
2023-01-09T12:04:42.349Z,21.08
2023-01-09T12:07:48.697Z,21.20
2023-01-09T12:10:39.678Z,21.35
2023-01-09T12:13:28.792Z,22.55
2023-01-09T12:16:14.102Z,24.27
2023-01-09T12:18:53.073Z,24.13
2023-01-09T12:21:22.926Z,25.83
2023-01-09T12:24:08.494Z,26.27
2023-01-09T12:27:01.910Z,27.77
2023-01-09T12:29:57.874Z,25.83
2023-01-09T12:32:55.276Z,27.33
2023-01-09T12:35:47.189Z,27.75
2023-01-09T12:38:30.025Z,27.35
2023-01-09T12:41:07.851Z,26.05
2023-01-09T12:44:27.346Z,26.48
2023-01-09T12:47:36.079Z,26.52
2023-01-09T12:50:09.629Z,24.70
2023-01-09T12:52:42.303Z,25.27
2023-01-09T12:55:18.075Z,25.55
2023-01-09T12:57:48.991Z,24.45
2023-01-09T13:00:19.547Z,23.23
2023-01-09T13:03:03.601Z,23.67
2023-01-09T13:05:43.319Z,23.58
2023-01-09T13:10:48.228Z,21.60
2023-01-09T13:13:53.312Z,22.88
2023-01-09T13:16:36.355Z,23.02
2023-01-09T13:19:21.073Z,21.42
2023-01-09T13:22:03.229Z,22.13
2023-01-09T13:25:07.437Z,19.15
2023-01-09T13:27:41.311Z,17.67
2023-01-09T13:30:49.425Z,17.48
2023-01-09T13:33:27.083Z,17.38
2023-01-09T13:35:57.744Z,17.15
2023-01-09T13:41:37.677Z,15.57
2023-01-09T13:44:23.861Z,15.68
2023-01-09T13:46:58.716Z,13.88
2023-01-09T13:50:01.189Z,14.48
2023-01-09T13:52:39.335Z,13.88
2023-01-09T13:55:12.080Z,13.70
2023-01-09T13:58:04.537Z,14.30
2023-01-09T14:03:19.449Z,11.75
2023-01-09T14:05:46.580Z,12.60
2023-01-09T14:08:25.732Z,12.80
2023-01-09T14:10:58.221Z,11.80
2023-01-09T14:13:28.156Z,12.73
2023-01-09T14:16:27.222Z,12.90
2023-01-09T14:18:59.797Z,14.10
2023-01-09T14:21:27.565Z,12.95
2023-01-09T14:24:06.660Z,12.63
2023-01-09T14:27:04.675Z,12.88
2023-01-09T14:29:33.234Z,13.10
2023-01-09T14:32:26.916Z,13.88
2023-01-09T14:35:15.778Z,14.45
2023-01-09T14:37:43.922Z,13.40
2023-01-09T14:40:23.940Z,14.00
2023-01-09T14:42:55.755Z,15.07
2023-01-09T14:45:26.871Z,14.77
2023-01-09T14:48:02.593Z,13.73
2023-01-09T14:50:35.918Z,13.75
2023-01-09T14:53:23.681Z,15.02
2023-01-09T14:55:58.207Z,14.25
2023-01-09T14:58:36.935Z,15.02
2023-01-09T15:01:23.042Z,14.60
2023-01-09T15:03:59.212Z,14.10
2023-01-09T15:06:29.484Z,14.18
2023-01-09T15:09:06.976Z,13.70
2023-01-09T15:11:38.664Z,13.50
2023-01-09T15:14:24.054Z,13.45
2023-01-09T15:16:51.260Z,14.52
2023-01-09T15:19:19.732Z,14.65
2023-01-09T15:22:01.406Z,15.55
2023-01-09T15:24:30.650Z,15.60
2023-01-09T15:27:12.125Z,15.00
2023-01-09T15:29:41.981Z,15.55
2023-01-09T15:32:15.358Z,14.40
2023-01-09T15:34:45.081Z,15.32
2023-01-09T15:37:30.056Z,12.77
2023-01-09T15:39:59.968Z,14.73
2023-01-09T15:42:49.431Z,14.45
2023-01-09T15:45:38.615Z,16.17
2023-01-09T15:48:34.951Z,14.57
2023-01-09T15:51:10.328Z,15.27
2023-01-09T15:53:37.113Z,14.20
2023-01-09T15:56:16.291Z,14.77
2023-01-09T15:58:50.595Z,14.65
2023-01-09T16:01:40.178Z,15.52
2023-01-09T16:04:14.174Z,15.38
2023-01-09T16:06:49.924Z,14.95
2023-01-09T16:09:19.233Z,14.13
2023-01-09T16:11:49.212Z,15.32
2023-01-09T16:14:28.803Z,17.25
2023-01-09T16:17:02.409Z,15.57
2023-01-09T16:19:33.552Z,17.65
2023-01-09T16:22:02.930Z,15.93
2023-01-09T16:24:48.736Z,16.30
2023-01-09T16:27:39.664Z,16.95
2023-01-09T16:30:26.773Z,16.02
2023-01-09T16:32:53.870Z,15.75
2023-01-09T16:35:23.785Z,15.30
2023-01-09T16:37:50.653Z,15.55
2023-01-09T16:40:17.405Z,15.73
2023-01-09T16:43:03.962Z,15.43
2023-01-09T16:45:46.434Z,15.52
2023-01-09T16:50:43.296Z,15.93
2023-01-09T16:53:15.215Z,16.33
2023-01-09T16:55:42.105Z,16.40
2023-01-09T16:58:35.424Z,15.70
2023-01-09T17:03:45.527Z,18.08
2023-01-09T17:06:21.628Z,19.83
2023-01-09T17:08:51.714Z,17.85
2023-01-09T17:11:32.266Z,17.13
2023-01-09T17:14:06.658Z,17.20
2023-01-09T17:16:37.027Z,18.30
2023-01-09T17:19:06.877Z,16.98
2023-01-09T17:21:33.674Z,17.38
2023-01-09T17:24:27.377Z,18.65
2023-01-09T17:27:15.736Z,18.15
2023-01-09T17:29:43.594Z,17.30
2023-01-09T17:32:21.812Z,17.73
2023-01-09T17:34:51.576Z,17.08
2023-01-09T17:37:22.108Z,16.38
2023-01-09T17:39:48.997Z,16.10
2023-01-09T17:42:19.301Z,16.40
2023-01-09T17:44:46.364Z,16.20
2023-01-09T17:47:21.572Z,16.00
2023-01-09T17:49:49.130Z,21.20
2023-01-09T17:52:16.514Z,15.70
2023-01-09T17:54:44.033Z,14.93
2023-01-09T17:57:34.240Z,15.25
2023-01-09T18:00:01.827Z,11.80
2023-01-09T18:02:28.841Z,15.68
2023-01-09T18:04:55.755Z,12.65
2023-01-09T18:07:23.813Z,11.38
2023-01-09T18:09:51.862Z,15.13
2023-01-09T18:12:18.775Z,12.25
2023-01-09T18:14:46.856Z,13.18
2023-01-09T18:17:14.519Z,14.38
2023-01-09T18:19:41.338Z,10.35
2023-01-09T18:22:08.013Z,11.50
2023-01-09T18:24:34.949Z,12.90
2023-01-09T18:27:04.442Z,11.50
2023-01-09T18:29:31.413Z,11.57
2023-01-09T18:31:58.140Z,10.63
2023-01-09T18:34:25.016Z,11.30
2023-01-09T18:36:51.800Z,11.75
2023-01-09T18:39:20.459Z,10.73
2023-01-09T18:41:50.777Z,11.27
2023-01-09T18:44:20.280Z,10.57
2023-01-09T18:46:50.167Z,11.50
2023-01-09T18:49:16.937Z,10.98
2023-01-09T18:51:45.923Z,12.05
2023-01-09T18:54:13.283Z,11.60
2023-01-09T18:56:41.353Z,10.40
2023-01-09T18:59:12.332Z,11.00
2023-01-09T19:01:39.155Z,10.93
2023-01-09T19:04:05.990Z,12.15
2023-01-09T19:06:32.909Z,11.50
2023-01-09T19:08:59.840Z,14.10
2023-01-09T19:11:27.002Z,14.27
2023-01-09T19:13:56.273Z,15.98
2023-01-09T19:16:26.182Z,16.17
2023-01-09T19:18:52.956Z,16.60
2023-01-09T19:21:22.276Z,17.95
2023-01-09T19:23:52.629Z,18.15
2023-01-09T19:26:25.782Z,19.60
2023-01-09T19:28:55.585Z,20.42
2023-01-09T19:31:24.707Z,21.13
2023-01-09T19:33:52.615Z,20.52
2023-01-09T19:36:19.755Z,21.42
2023-01-09T19:38:46.905Z,20.33
2023-01-09T19:41:26.927Z,20.92
2023-01-09T19:43:54.194Z,21.42
2023-01-09T19:46:25.699Z,21.85
2023-01-09T19:48:53.552Z,20.10
2023-01-09T19:51:23.828Z,22.13
2023-01-09T19:56:31.716Z,21.05
2023-01-09T19:59:01.047Z,22.75
2023-01-09T20:01:33.798Z,22.58
2023-01-09T20:04:06.170Z,22.38
2023-01-09T20:06:39.259Z,22.80
2023-01-09T20:09:07.790Z,22.27
2023-01-09T20:11:40.270Z,22.67
2023-01-09T20:14:25.399Z,24.17
2023-01-09T20:16:54.245Z,23.85
2023-01-09T20:19:21.284Z,23.67
2023-01-09T20:21:48.069Z,23.88
2023-01-09T20:24:18.664Z,22.48
2023-01-09T20:26:48.569Z,25.65
2023-01-09T20:29:15.411Z,24.02
2023-01-09T20:31:42.411Z,24.58
2023-01-09T20:34:12.961Z,24.98
2023-01-09T20:36:40.529Z,25.77
2023-01-09T20:39:14.105Z,24.88
2023-01-09T20:41:40.991Z,23.25
2023-01-09T20:44:11.687Z,23.58
2023-01-09T20:46:41.577Z,26.13
2023-01-09T20:49:12.359Z,26.27
2023-01-09T20:51:49.528Z,27.08
2023-01-09T20:54:18.015Z,26.73
2023-01-09T20:56:44.850Z,27.30
2023-01-09T20:59:20.223Z,26.35
2023-01-09T21:01:48.640Z,27.25
2023-01-09T21:04:15.574Z,26.65
2023-01-09T21:06:42.899Z,27.55
2023-01-09T21:09:12.136Z,27.92
2023-01-09T21:11:45.067Z,27.45
2023-01-09T21:14:14.328Z,26.77
2023-01-09T21:16:41.050Z,29.15
2023-01-09T21:19:07.855Z,26.98
2023-01-09T21:21:34.511Z,27.10
2023-01-09T21:24:01.251Z,32.08
2023-01-09T21:26:30.746Z,30.55
2023-01-09T21:29:10.499Z,26.88
2023-01-09T21:31:42.822Z,24.95
2023-01-09T21:34:14.660Z,28.90
2023-01-09T21:36:46.597Z,29.17
2023-01-09T21:39:15.670Z,29.23
2023-01-09T21:42:00.840Z,29.45
2023-01-09T21:44:46.550Z,29.52
2023-01-09T21:47:13.458Z,28.67
2023-01-09T21:49:44.704Z,28.55
2023-01-09T21:52:13.098Z,29.55
2023-01-09T21:54:40.603Z,28.80
2023-01-09T21:57:07.489Z,31.08
2023-01-09T21:59:34.150Z,30.02
2023-01-09T22:02:00.881Z,32.28
2023-01-09T22:04:32.057Z,31.02
2023-01-09T22:06:58.860Z,31.03
2023-01-09T22:09:31.768Z,31.10
2023-01-09T22:11:59.192Z,30.40
2023-01-09T22:14:27.515Z,30.20
2023-01-09T22:16:54.851Z,30.30
2023-01-09T22:19:28.581Z,32.15
2023-01-09T22:21:58.065Z,28.90
2023-01-09T22:24:24.842Z,31.63
2023-01-09T22:26:51.546Z,29.13
2023-01-09T22:29:18.420Z,30.10
2023-01-09T22:31:45.455Z,31.85
2023-01-09T22:34:17.369Z,31.30
2023-01-09T22:36:47.548Z,32.08
2023-01-09T22:39:19.740Z,31.05
2023-01-09T22:41:52.926Z,30.40
2023-01-09T22:44:19.705Z,28.63
2023-01-09T22:46:49.616Z,27.73
2023-01-09T22:49:16.381Z,28.05
2023-01-09T22:51:43.979Z,29.13
2023-01-09T22:54:11.437Z,29.23
2023-01-09T22:56:38.280Z,29.75
2023-01-09T22:59:05.015Z,30.00
2023-01-09T23:01:31.945Z,29.15
2023-01-09T23:04:01.325Z,28.58
2023-01-09T23:06:28.298Z,30.08
2023-01-09T23:08:59.042Z,29.70
2023-01-09T23:12:07.498Z,29.92
2023-01-09T23:14:39.143Z,29.08
2023-01-09T23:17:07.999Z,29.42
2023-01-09T23:19:34.904Z,30.92
2023-01-09T23:22:05.209Z,29.33
2023-01-09T23:24:32.119Z,29.08
2023-01-09T23:26:59.191Z,30.27
2023-01-09T23:29:26.435Z,29.30
2023-01-09T23:31:53.912Z,30.15
2023-01-09T23:34:24.421Z,29.75
2023-01-09T23:36:52.416Z,30.05
2023-01-09T23:39:19.375Z,30.00
2023-01-09T23:42:07.243Z,30.70
2023-01-09T23:44:36.540Z,28.48
2023-01-09T23:47:03.637Z,30.80
2023-01-09T23:49:30.533Z,28.92
2023-01-09T23:51:59.800Z,30.13
2023-01-09T23:54:26.729Z,34.58
2023-01-09T23:56:56.477Z,34.60
2023-01-09T23:59:23.842Z,34.45
